sensor_id;sensor_type;location;lat;lon;timestamp;P1;durP1;ratioP1;P2;durP2;ratioP2
46348;SDS011;32057;47.830;19.046;2024-02-26T00:01:47;12.55;;;7.15;;
46348;SDS011;32057;47.830;19.046;2024-02-26T00:04:13;13.30;;;6.20;;
46348;SDS011;32057;47.830;19.046;2024-02-26T00:06:38;10.18;;;6.95;;
46348;SDS011;32057;47.830;19.046;2024-02-26T00:09:07;17.48;;;8.13;;
46348;SDS011;32057;47.830;19.046;2024-02-26T00:11:33;11.38;;;7.50;;
46348;SDS011;32057;47.830;19.046;2024-02-26T00:13:58;8.82;;;7.07;;
46348;SDS011;32057;47.830;19.046;2024-02-26T00:16:24;9.90;;;6.28;;
46348;SDS011;32057;47.830;19.046;2024-02-26T00:18:49;12.52;;;7.25;;
46348;SDS011;32057;47.830;19.046;2024-02-26T00:21:15;8.63;;;6.57;;
46348;SDS011;32057;47.830;19.046;2024-02-26T00:23:40;17.42;;;8.13;;
46348;SDS011;32057;47.830;19.046;2024-02-26T00:26:06;9.70;;;7.00;;
46348;SDS011;32057;47.830;19.046;2024-02-26T00:28:31;12.65;;;7.00;;
46348;SDS011;32057;47.830;19.046;2024-02-26T00:30:56;10.57;;;7.47;;
46348;SDS011;32057;47.830;19.046;2024-02-26T00:33:22;11.88;;;6.88;;
46348;SDS011;32057;47.830;19.046;2024-02-26T00:35:48;12.70;;;7.38;;
46348;SDS011;32057;47.830;19.046;2024-02-26T00:38:14;9.82;;;7.03;;
46348;SDS011;32057;47.830;19.046;2024-02-26T00:40:39;11.07;;;7.32;;
46348;SDS011;32057;47.830;19.046;2024-02-26T00:43:05;8.68;;;6.70;;
46348;SDS011;32057;47.830;19.046;2024-02-26T00:45:31;10.55;;;6.20;;
46348;SDS011;32057;47.830;19.046;2024-02-26T00:47:57;10.45;;;7.70;;
46348;SDS011;32057;47.830;19.046;2024-02-26T00:50:23;11.10;;;7.72;;
46348;SDS011;32057;47.830;19.046;2024-02-26T00:52:48;13.88;;;8.10;;
46348;SDS011;32057;47.830;19.046;2024-02-26T00:55:13;13.95;;;6.47;;
46348;SDS011;32057;47.830;19.046;2024-02-26T00:57:39;9.80;;;6.55;;
46348;SDS011;32057;47.830;19.046;2024-02-26T01:00:06;12.30;;;7.80;;
46348;SDS011;32057;47.830;19.046;2024-02-26T01:02:34;14.23;;;7.65;;
46348;SDS011;32057;47.830;19.046;2024-02-26T01:04:59;13.10;;;7.00;;
46348;SDS011;32057;47.830;19.046;2024-02-26T01:07:25;9.25;;;6.65;;
46348;SDS011;32057;47.830;19.046;2024-02-26T01:09:50;10.02;;;6.55;;
46348;SDS011;32057;47.830;19.046;2024-02-26T01:12:15;9.90;;;6.82;;
46348;SDS011;32057;47.830;19.046;2024-02-26T01:14:41;8.65;;;6.32;;
46348;SDS011;32057;47.830;19.046;2024-02-26T01:17:06;8.48;;;5.65;;
46348;SDS011;32057;47.830;19.046;2024-02-26T01:19:31;7.93;;;5.55;;
46348;SDS011;32057;47.830;19.046;2024-02-26T01:21:57;13.02;;;6.78;;
46348;SDS011;32057;47.830;19.046;2024-02-26T01:24:23;8.02;;;6.38;;
46348;SDS011;32057;47.830;19.046;2024-02-26T01:26:51;10.27;;;5.63;;
46348;SDS011;32057;47.830;19.046;2024-02-26T01:29:18;8.73;;;5.95;;
46348;SDS011;32057;47.830;19.046;2024-02-26T01:31:43;10.52;;;6.78;;
46348;SDS011;32057;47.830;19.046;2024-02-26T01:34:09;11.88;;;5.95;;
46348;SDS011;32057;47.830;19.046;2024-02-26T01:36:34;13.48;;;6.78;;
46348;SDS011;32057;47.830;19.046;2024-02-26T01:38:59;11.65;;;5.55;;
46348;SDS011;32057;47.830;19.046;2024-02-26T01:41:25;9.98;;;6.15;;
46348;SDS011;32057;47.830;19.046;2024-02-26T01:43:50;8.88;;;6.55;;
46348;SDS011;32057;47.830;19.046;2024-02-26T01:46:15;13.90;;;6.75;;
46348;SDS011;32057;47.830;19.046;2024-02-26T01:48:42;9.57;;;6.50;;
46348;SDS011;32057;47.830;19.046;2024-02-26T01:51:09;11.18;;;5.88;;
46348;SDS011;32057;47.830;19.046;2024-02-26T01:53:37;9.75;;;6.15;;
46348;SDS011;32057;47.830;19.046;2024-02-26T01:56:03;10.52;;;6.70;;
46348;SDS011;32057;47.830;19.046;2024-02-26T01:58:29;11.05;;;6.38;;
46348;SDS011;32057;47.830;19.046;2024-02-26T02:00:55;10.98;;;6.65;;
46348;SDS011;32057;47.830;19.046;2024-02-26T02:03:21;10.02;;;6.47;;
46348;SDS011;32057;47.830;19.046;2024-02-26T02:05:47;14.43;;;7.63;;
46348;SDS011;32057;47.830;19.046;2024-02-26T02:08:12;9.38;;;5.60;;
46348;SDS011;32057;47.830;19.046;2024-02-26T02:10:39;9.20;;;5.97;;
46348;SDS011;32057;47.830;19.046;2024-02-26T02:13:05;9.77;;;6.05;;
46348;SDS011;32057;47.830;19.046;2024-02-26T02:15:31;8.52;;;5.93;;
46348;SDS011;32057;47.830;19.046;2024-02-26T02:17:56;6.88;;;5.43;;
46348;SDS011;32057;47.830;19.046;2024-02-26T02:20:26;12.10;;;8.18;;
46348;SDS011;32057;47.830;19.046;2024-02-26T02:22:56;10.13;;;5.90;;
46348;SDS011;32057;47.830;19.046;2024-02-26T02:25:22;10.63;;;6.15;;
46348;SDS011;32057;47.830;19.046;2024-02-26T02:27:47;11.30;;;6.28;;
46348;SDS011;32057;47.830;19.046;2024-02-26T02:30:12;10.13;;;5.63;;
46348;SDS011;32057;47.830;19.046;2024-02-26T02:32:39;12.75;;;6.00;;
46348;SDS011;32057;47.830;19.046;2024-02-26T02:35:06;12.77;;;5.80;;
46348;SDS011;32057;47.830;19.046;2024-02-26T02:37:32;12.18;;;6.53;;
46348;SDS011;32057;47.830;19.046;2024-02-26T02:39:57;14.63;;;6.13;;
46348;SDS011;32057;47.830;19.046;2024-02-26T02:42:23;8.95;;;6.00;;
46348;SDS011;32057;47.830;19.046;2024-02-26T02:44:49;11.52;;;6.80;;
46348;SDS011;32057;47.830;19.046;2024-02-26T02:47:14;10.23;;;7.05;;
46348;SDS011;32057;47.830;19.046;2024-02-26T02:49:39;11.60;;;6.40;;
46348;SDS011;32057;47.830;19.046;2024-02-26T02:52:05;8.60;;;5.72;;
46348;SDS011;32057;47.830;19.046;2024-02-26T02:54:30;8.80;;;5.93;;
46348;SDS011;32057;47.830;19.046;2024-02-26T02:56:56;9.68;;;6.78;;
46348;SDS011;32057;47.830;19.046;2024-02-26T02:59:21;10.43;;;6.18;;
46348;SDS011;32057;47.830;19.046;2024-02-26T03:01:46;7.82;;;5.57;;
46348;SDS011;32057;47.830;19.046;2024-02-26T03:04:12;9.88;;;6.68;;
46348;SDS011;32057;47.830;19.046;2024-02-26T03:06:37;9.98;;;7.07;;
46348;SDS011;32057;47.830;19.046;2024-02-26T03:09:02;7.25;;;5.53;;
46348;SDS011;32057;47.830;19.046;2024-02-26T03:11:28;7.68;;;5.60;;
46348;SDS011;32057;47.830;19.046;2024-02-26T03:13:53;9.27;;;5.88;;
46348;SDS011;32057;47.830;19.046;2024-02-26T03:16:18;10.55;;;5.38;;
46348;SDS011;32057;47.830;19.046;2024-02-26T03:18:44;12.02;;;5.93;;
46348;SDS011;32057;47.830;19.046;2024-02-26T03:21:09;11.65;;;4.95;;
46348;SDS011;32057;47.830;19.046;2024-02-26T03:23:34;10.95;;;5.68;;
46348;SDS011;32057;47.830;19.046;2024-02-26T03:26:06;10.98;;;5.93;;
46348;SDS011;32057;47.830;19.046;2024-02-26T03:28:31;6.68;;;4.95;;
46348;SDS011;32057;47.830;19.046;2024-02-26T03:30:58;10.40;;;5.65;;
46348;SDS011;32057;47.830;19.046;2024-02-26T03:33:24;7.75;;;5.05;;
46348;SDS011;32057;47.830;19.046;2024-02-26T03:35:50;16.08;;;5.25;;
46348;SDS011;32057;47.830;19.046;2024-02-26T03:38:15;6.32;;;4.78;;
46348;SDS011;32057;47.830;19.046;2024-02-26T03:40:40;9.23;;;5.65;;
46348;SDS011;32057;47.830;19.046;2024-02-26T03:43:06;9.02;;;4.93;;
46348;SDS011;32057;47.830;19.046;2024-02-26T03:45:32;5.15;;;4.05;;
46348;SDS011;32057;47.830;19.046;2024-02-26T03:47:58;6.70;;;4.85;;
46348;SDS011;32057;47.830;19.046;2024-02-26T03:50:23;8.05;;;5.88;;
46348;SDS011;32057;47.830;19.046;2024-02-26T03:52:49;8.15;;;3.78;;
46348;SDS011;32057;47.830;19.046;2024-02-26T03:55:14;5.40;;;3.92;;
46348;SDS011;32057;47.830;19.046;2024-02-26T03:57:39;9.45;;;4.85;;
46348;SDS011;32057;47.830;19.046;2024-02-26T04:00:05;7.38;;;5.22;;
46348;SDS011;32057;47.830;19.046;2024-02-26T04:02:31;8.25;;;3.70;;
46348;SDS011;32057;47.830;19.046;2024-02-26T04:04:56;9.75;;;5.10;;
46348;SDS011;32057;47.830;19.046;2024-02-26T04:07:22;9.60;;;4.70;;
46348;SDS011;32057;47.830;19.046;2024-02-26T04:09:47;6.93;;;5.32;;
46348;SDS011;32057;47.830;19.046;2024-02-26T04:12:13;6.75;;;4.45;;
46348;SDS011;32057;47.830;19.046;2024-02-26T04:14:38;7.57;;;4.72;;
46348;SDS011;32057;47.830;19.046;2024-02-26T04:17:03;11.95;;;4.32;;
46348;SDS011;32057;47.830;19.046;2024-02-26T04:19:29;8.40;;;5.43;;
46348;SDS011;32057;47.830;19.046;2024-02-26T04:21:54;6.75;;;4.47;;
46348;SDS011;32057;47.830;19.046;2024-02-26T04:24:20;9.40;;;4.72;;
46348;SDS011;32057;47.830;19.046;2024-02-26T04:26:45;7.30;;;4.90;;
46348;SDS011;32057;47.830;19.046;2024-02-26T04:29:10;9.15;;;5.35;;
46348;SDS011;32057;47.830;19.046;2024-02-26T04:31:37;6.78;;;4.35;;
46348;SDS011;32057;47.830;19.046;2024-02-26T04:34:02;11.80;;;5.13;;
46348;SDS011;32057;47.830;19.046;2024-02-26T04:36:28;6.88;;;4.55;;
46348;SDS011;32057;47.830;19.046;2024-02-26T04:38:53;8.55;;;5.45;;
46348;SDS011;32057;47.830;19.046;2024-02-26T04:41:21;15.60;;;5.25;;
46348;SDS011;32057;47.830;19.046;2024-02-26T04:43:47;12.85;;;5.40;;
46348;SDS011;32057;47.830;19.046;2024-02-26T04:46:12;15.65;;;6.32;;
46348;SDS011;32057;47.830;19.046;2024-02-26T04:48:37;12.75;;;6.10;;
46348;SDS011;32057;47.830;19.046;2024-02-26T04:51:03;8.43;;;5.40;;
46348;SDS011;32057;47.830;19.046;2024-02-26T04:53:29;9.60;;;4.93;;
46348;SDS011;32057;47.830;19.046;2024-02-26T04:55:55;8.40;;;4.57;;
46348;SDS011;32057;47.830;19.046;2024-02-26T04:58:20;10.43;;;5.50;;
46348;SDS011;32057;47.830;19.046;2024-02-26T05:00:45;9.63;;;5.15;;
46348;SDS011;32057;47.830;19.046;2024-02-26T05:03:11;12.30;;;6.78;;
46348;SDS011;32057;47.830;19.046;2024-02-26T05:05:40;11.25;;;7.20;;
46348;SDS011;32057;47.830;19.046;2024-02-26T05:08:06;14.02;;;6.50;;
46348;SDS011;32057;47.830;19.046;2024-02-26T05:10:32;20.65;;;7.05;;
46348;SDS011;32057;47.830;19.046;2024-02-26T05:12:58;13.38;;;7.43;;
46348;SDS011;32057;47.830;19.046;2024-02-26T05:15:23;11.68;;;6.72;;
46348;SDS011;32057;47.830;19.046;2024-02-26T05:17:48;15.23;;;8.13;;
46348;SDS011;32057;47.830;19.046;2024-02-26T05:20:14;9.75;;;5.65;;
46348;SDS011;32057;47.830;19.046;2024-02-26T05:22:39;12.30;;;6.53;;
46348;SDS011;32057;47.830;19.046;2024-02-26T05:25:05;11.38;;;7.00;;
46348;SDS011;32057;47.830;19.046;2024-02-26T05:27:30;11.55;;;6.95;;
46348;SDS011;32057;47.830;19.046;2024-02-26T05:29:55;12.55;;;6.68;;
46348;SDS011;32057;47.830;19.046;2024-02-26T05:32:21;10.13;;;6.25;;
46348;SDS011;32057;47.830;19.046;2024-02-26T05:34:47;11.02;;;6.85;;
46348;SDS011;32057;47.830;19.046;2024-02-26T05:37:12;8.38;;;5.18;;
46348;SDS011;32057;47.830;19.046;2024-02-26T05:39:37;8.55;;;5.53;;
46348;SDS011;32057;47.830;19.046;2024-02-26T05:42:04;9.23;;;5.32;;
46348;SDS011;32057;47.830;19.046;2024-02-26T05:44:29;8.85;;;5.95;;
46348;SDS011;32057;47.830;19.046;2024-02-26T05:46:55;9.15;;;6.72;;
46348;SDS011;32057;47.830;19.046;2024-02-26T05:49:21;9.32;;;5.75;;
46348;SDS011;32057;47.830;19.046;2024-02-26T05:51:47;8.50;;;4.75;;
46348;SDS011;32057;47.830;19.046;2024-02-26T05:54:12;8.52;;;5.60;;
46348;SDS011;32057;47.830;19.046;2024-02-26T05:56:38;9.88;;;5.80;;
46348;SDS011;32057;47.830;19.046;2024-02-26T05:59:04;12.77;;;6.68;;
46348;SDS011;32057;47.830;19.046;2024-02-26T06:01:30;8.93;;;6.15;;
46348;SDS011;32057;47.830;19.046;2024-02-26T06:03:56;16.73;;;6.05;;
46348;SDS011;32057;47.830;19.046;2024-02-26T06:06:21;9.65;;;6.13;;
46348;SDS011;32057;47.830;19.046;2024-02-26T06:08:48;14.75;;;6.70;;
46348;SDS011;32057;47.830;19.046;2024-02-26T06:11:14;15.73;;;6.47;;
46348;SDS011;32057;47.830;19.046;2024-02-26T06:13:39;14.82;;;6.53;;
46348;SDS011;32057;47.830;19.046;2024-02-26T06:16:04;7.72;;;4.95;;
46348;SDS011;32057;47.830;19.046;2024-02-26T06:18:30;28.20;;;9.13;;
46348;SDS011;32057;47.830;19.046;2024-02-26T06:20:55;13.15;;;7.18;;
46348;SDS011;32057;47.830;19.046;2024-02-26T06:23:21;13.88;;;8.05;;
46348;SDS011;32057;47.830;19.046;2024-02-26T06:25:46;11.35;;;7.22;;
46348;SDS011;32057;47.830;19.046;2024-02-26T06:28:13;19.55;;;7.35;;
46348;SDS011;32057;47.830;19.046;2024-02-26T06:30:38;11.60;;;6.43;;
46348;SDS011;32057;47.830;19.046;2024-02-26T06:33:03;10.40;;;6.25;;
46348;SDS011;32057;47.830;19.046;2024-02-26T06:35:29;12.45;;;6.80;;
46348;SDS011;32057;47.830;19.046;2024-02-26T06:37:54;17.02;;;7.57;;
46348;SDS011;32057;47.830;19.046;2024-02-26T06:40:20;12.20;;;6.72;;
46348;SDS011;32057;47.830;19.046;2024-02-26T06:42:45;15.10;;;6.68;;
46348;SDS011;32057;47.830;19.046;2024-02-26T06:45:15;11.52;;;7.47;;
46348;SDS011;32057;47.830;19.046;2024-02-26T06:47:40;14.90;;;7.30;;
46348;SDS011;32057;47.830;19.046;2024-02-26T06:50:06;11.02;;;7.88;;
46348;SDS011;32057;47.830;19.046;2024-02-26T06:52:31;14.27;;;8.25;;
46348;SDS011;32057;47.830;19.046;2024-02-26T06:54:57;14.85;;;8.13;;
46348;SDS011;32057;47.830;19.046;2024-02-26T06:57:22;15.52;;;8.10;;
46348;SDS011;32057;47.830;19.046;2024-02-26T06:59:48;19.30;;;9.25;;
46348;SDS011;32057;47.830;19.046;2024-02-26T07:02:14;18.95;;;8.35;;
46348;SDS011;32057;47.830;19.046;2024-02-26T07:04:39;21.38;;;9.52;;
46348;SDS011;32057;47.830;19.046;2024-02-26T07:07:05;19.27;;;8.20;;
46348;SDS011;32057;47.830;19.046;2024-02-26T07:09:31;15.60;;;9.43;;
46348;SDS011;32057;47.830;19.046;2024-02-26T07:11:56;15.70;;;8.70;;
46348;SDS011;32057;47.830;19.046;2024-02-26T07:14:22;17.80;;;9.02;;
46348;SDS011;32057;47.830;19.046;2024-02-26T07:16:47;16.38;;;9.60;;
46348;SDS011;32057;47.830;19.046;2024-02-26T07:19:15;18.13;;;8.90;;
46348;SDS011;32057;47.830;19.046;2024-02-26T07:21:43;16.95;;;9.05;;
46348;SDS011;32057;47.830;19.046;2024-02-26T07:24:09;13.82;;;8.40;;
46348;SDS011;32057;47.830;19.046;2024-02-26T07:26:34;13.75;;;7.57;;
46348;SDS011;32057;47.830;19.046;2024-02-26T07:28:59;18.70;;;9.30;;
46348;SDS011;32057;47.830;19.046;2024-02-26T07:31:25;15.30;;;8.02;;
46348;SDS011;32057;47.830;19.046;2024-02-26T07:33:50;16.17;;;9.13;;
46348;SDS011;32057;47.830;19.046;2024-02-26T07:36:16;15.52;;;8.90;;
46348;SDS011;32057;47.830;19.046;2024-02-26T07:38:41;12.20;;;8.05;;
46348;SDS011;32057;47.830;19.046;2024-02-26T07:41:07;16.23;;;8.57;;
46348;SDS011;32057;47.830;19.046;2024-02-26T07:43:32;27.20;;;13.35;;
46348;SDS011;32057;47.830;19.046;2024-02-26T07:45:58;25.90;;;14.38;;
46348;SDS011;32057;47.830;19.046;2024-02-26T07:48:23;29.30;;;14.23;;
46348;SDS011;32057;47.830;19.046;2024-02-26T07:50:48;20.40;;;11.68;;
46348;SDS011;32057;47.830;19.046;2024-02-26T07:53:14;20.85;;;11.68;;
46348;SDS011;32057;47.830;19.046;2024-02-26T07:55:39;21.30;;;12.27;;
46348;SDS011;32057;47.830;19.046;2024-02-26T07:58:04;14.48;;;8.80;;
46348;SDS011;32057;47.830;19.046;2024-02-26T08:00:29;13.18;;;7.68;;
46348;SDS011;32057;47.830;19.046;2024-02-26T08:02:55;15.02;;;9.13;;
46348;SDS011;32057;47.830;19.046;2024-02-26T08:05:20;18.30;;;10.65;;
46348;SDS011;32057;47.830;19.046;2024-02-26T08:07:45;15.13;;;9.15;;
46348;SDS011;32057;47.830;19.046;2024-02-26T08:10:11;15.00;;;9.55;;
46348;SDS011;32057;47.830;19.046;2024-02-26T08:12:36;14.98;;;8.88;;
46348;SDS011;32057;47.830;19.046;2024-02-26T08:15:02;17.98;;;10.60;;
46348;SDS011;32057;47.830;19.046;2024-02-26T08:17:28;15.80;;;9.90;;
46348;SDS011;32057;47.830;19.046;2024-02-26T08:19:53;19.45;;;10.60;;
46348;SDS011;32057;47.830;19.046;2024-02-26T08:22:19;14.52;;;9.35;;
46348;SDS011;32057;47.830;19.046;2024-02-26T08:24:44;17.23;;;10.13;;
46348;SDS011;32057;47.830;19.046;2024-02-26T08:27:10;16.83;;;9.77;;
46348;SDS011;32057;47.830;19.046;2024-02-26T08:29:38;14.43;;;9.20;;
46348;SDS011;32057;47.830;19.046;2024-02-26T08:32:03;16.95;;;10.43;;
46348;SDS011;32057;47.830;19.046;2024-02-26T08:34:29;16.98;;;9.63;;
46348;SDS011;32057;47.830;19.046;2024-02-26T08:36:54;18.25;;;10.88;;
46348;SDS011;32057;47.830;19.046;2024-02-26T08:39:19;21.60;;;12.77;;
46348;SDS011;32057;47.830;19.046;2024-02-26T08:41:45;20.42;;;11.68;;
46348;SDS011;32057;47.830;19.046;2024-02-26T08:44:11;21.20;;;12.13;;
46348;SDS011;32057;47.830;19.046;2024-02-26T08:46:36;20.30;;;12.40;;
46348;SDS011;32057;47.830;19.046;2024-02-26T08:49:01;19.55;;;13.38;;
46348;SDS011;32057;47.830;19.046;2024-02-26T08:51:27;22.52;;;14.18;;
46348;SDS011;32057;47.830;19.046;2024-02-26T08:53:52;23.92;;;13.98;;
46348;SDS011;32057;47.830;19.046;2024-02-26T08:56:18;24.75;;;14.10;;
46348;SDS011;32057;47.830;19.046;2024-02-26T08:58:44;28.90;;;13.55;;
46348;SDS011;32057;47.830;19.046;2024-02-26T09:01:11;25.33;;;14.02;;
46348;SDS011;32057;47.830;19.046;2024-02-26T09:03:36;24.48;;;15.43;;
46348;SDS011;32057;47.830;19.046;2024-02-26T09:06:02;22.50;;;14.40;;
46348;SDS011;32057;47.830;19.046;2024-02-26T09:08:27;24.48;;;15.80;;
46348;SDS011;32057;47.830;19.046;2024-02-26T09:10:53;24.10;;;15.65;;
46348;SDS011;32057;47.830;19.046;2024-02-26T09:13:18;23.35;;;15.38;;
46348;SDS011;32057;47.830;19.046;2024-02-26T09:15:43;29.73;;;16.85;;
46348;SDS011;32057;47.830;19.046;2024-02-26T09:18:09;31.50;;;16.45;;
46348;SDS011;32057;47.830;19.046;2024-02-26T09:20:34;23.60;;;14.45;;
46348;SDS011;32057;47.830;19.046;2024-02-26T09:23:00;21.83;;;13.55;;
46348;SDS011;32057;47.830;19.046;2024-02-26T09:25:25;29.50;;;14.23;;
46348;SDS011;32057;47.830;19.046;2024-02-26T09:27:51;21.75;;;13.57;;
46348;SDS011;32057;47.830;19.046;2024-02-26T09:30:16;26.27;;;15.93;;
46348;SDS011;32057;47.830;19.046;2024-02-26T09:32:45;25.88;;;15.48;;
46348;SDS011;32057;47.830;19.046;2024-02-26T09:35:11;27.38;;;14.95;;
46348;SDS011;32057;47.830;19.046;2024-02-26T09:37:38;24.15;;;15.25;;
46348;SDS011;32057;47.830;19.046;2024-02-26T09:40:04;23.83;;;15.23;;
46348;SDS011;32057;47.830;19.046;2024-02-26T09:42:31;22.48;;;15.15;;
46348;SDS011;32057;47.830;19.046;2024-02-26T09:45:00;26.70;;;13.68;;
46348;SDS011;32057;47.830;19.046;2024-02-26T09:47:31;21.63;;;14.20;;
46348;SDS011;32057;47.830;19.046;2024-02-26T09:49:57;28.85;;;16.70;;
46348;SDS011;32057;47.830;19.046;2024-02-26T09:52:24;24.20;;;15.77;;
46348;SDS011;32057;47.830;19.046;2024-02-26T09:54:51;23.85;;;15.25;;
46348;SDS011;32057;47.830;19.046;2024-02-26T09:57:16;29.58;;;15.85;;
46348;SDS011;32057;47.830;19.046;2024-02-26T09:59:43;24.05;;;16.65;;
46348;SDS011;32057;47.830;19.046;2024-02-26T10:02:11;29.30;;;16.70;;
46348;SDS011;32057;47.830;19.046;2024-02-26T10:04:38;27.85;;;17.33;;
46348;SDS011;32057;47.830;19.046;2024-02-26T10:07:05;25.95;;;15.13;;
46348;SDS011;32057;47.830;19.046;2024-02-26T10:09:35;28.38;;;17.02;;
46348;SDS011;32057;47.830;19.046;2024-02-26T10:12:01;24.92;;;16.38;;
46348;SDS011;32057;47.830;19.046;2024-02-26T10:14:26;27.25;;;16.05;;
46348;SDS011;32057;47.830;19.046;2024-02-26T10:16:52;26.52;;;14.85;;
46348;SDS011;32057;47.830;19.046;2024-02-26T10:19:24;28.92;;;16.67;;
46348;SDS011;32057;47.830;19.046;2024-02-26T10:21:53;26.25;;;16.02;;
46348;SDS011;32057;47.830;19.046;2024-02-26T10:24:22;32.03;;;18.05;;
46348;SDS011;32057;47.830;19.046;2024-02-26T10:26:47;28.23;;;16.35;;
46348;SDS011;32057;47.830;19.046;2024-02-26T10:29:12;25.65;;;16.17;;
46348;SDS011;32057;47.830;19.046;2024-02-26T10:31:41;28.73;;;17.70;;
46348;SDS011;32057;47.830;19.046;2024-02-26T10:34:07;27.83;;;16.35;;
46348;SDS011;32057;47.830;19.046;2024-02-26T10:36:33;27.13;;;16.45;;
46348;SDS011;32057;47.830;19.046;2024-02-26T10:39:01;26.20;;;16.83;;
46348;SDS011;32057;47.830;19.046;2024-02-26T10:41:28;26.73;;;15.93;;
46348;SDS011;32057;47.830;19.046;2024-02-26T10:43:54;38.80;;;16.40;;
46348;SDS011;32057;47.830;19.046;2024-02-26T10:46:19;26.63;;;16.40;;
46348;SDS011;32057;47.830;19.046;2024-02-26T10:48:49;29.08;;;17.23;;
46348;SDS011;32057;47.830;19.046;2024-02-26T10:51:16;22.63;;;15.13;;
46348;SDS011;32057;47.830;19.046;2024-02-26T10:53:47;23.85;;;15.68;;
46348;SDS011;32057;47.830;19.046;2024-02-26T10:56:14;28.35;;;16.45;;
46348;SDS011;32057;47.830;19.046;2024-02-26T10:58:42;27.70;;;15.63;;
46348;SDS011;32057;47.830;19.046;2024-02-26T11:01:11;28.17;;;16.48;;
46348;SDS011;32057;47.830;19.046;2024-02-26T11:03:37;23.35;;;15.05;;
46348;SDS011;32057;47.830;19.046;2024-02-26T11:06:04;28.60;;;17.48;;
46348;SDS011;32057;47.830;19.046;2024-02-26T11:08:29;24.77;;;15.57;;
46348;SDS011;32057;47.830;19.046;2024-02-26T11:10:57;26.08;;;16.60;;
46348;SDS011;32057;47.830;19.046;2024-02-26T11:13:23;22.30;;;14.48;;
46348;SDS011;32057;47.830;19.046;2024-02-26T11:15:55;19.80;;;13.82;;
46348;SDS011;32057;47.830;19.046;2024-02-26T11:18:22;27.15;;;16.20;;
46348;SDS011;32057;47.830;19.046;2024-02-26T11:20:50;26.58;;;16.55;;
46348;SDS011;32057;47.830;19.046;2024-02-26T11:23:17;25.00;;;15.05;;
46348;SDS011;32057;47.830;19.046;2024-02-26T11:25:42;24.55;;;15.32;;
46348;SDS011;32057;47.830;19.046;2024-02-26T11:28:09;20.70;;;13.98;;
46348;SDS011;32057;47.830;19.046;2024-02-26T11:30:39;20.63;;;14.00;;
46348;SDS011;32057;47.830;19.046;2024-02-26T11:33:10;20.77;;;14.40;;
46348;SDS011;32057;47.830;19.046;2024-02-26T11:35:37;23.90;;;15.55;;
46348;SDS011;32057;47.830;19.046;2024-02-26T11:38:03;23.63;;;15.18;;
46348;SDS011;32057;47.830;19.046;2024-02-26T11:40:31;23.75;;;14.68;;
46348;SDS011;32057;47.830;19.046;2024-02-26T11:42:57;28.00;;;15.98;;
46348;SDS011;32057;47.830;19.046;2024-02-26T11:48:03;18.95;;;13.10;;
46348;SDS011;32057;47.830;19.046;2024-02-26T11:50:33;24.25;;;13.95;;
46348;SDS011;32057;47.830;19.046;2024-02-26T11:53:19;22.90;;;13.73;;
46348;SDS011;32057;47.830;19.046;2024-02-26T11:55:48;18.65;;;11.82;;
46348;SDS011;32057;47.830;19.046;2024-02-26T11:58:33;26.58;;;13.32;;
46348;SDS011;32057;47.830;19.046;2024-02-26T12:00:59;24.50;;;12.90;;
46348;SDS011;32057;47.830;19.046;2024-02-26T12:03:24;17.75;;;12.23;;
46348;SDS011;32057;47.830;19.046;2024-02-26T12:05:51;22.90;;;13.73;;
46348;SDS011;32057;47.830;19.046;2024-02-26T12:08:16;18.98;;;13.27;;
46348;SDS011;32057;47.830;19.046;2024-02-26T12:10:44;21.20;;;14.80;;
46348;SDS011;32057;47.830;19.046;2024-02-26T12:13:11;20.90;;;13.38;;
46348;SDS011;32057;47.830;19.046;2024-02-26T12:15:59;19.08;;;14.07;;
46348;SDS011;32057;47.830;19.046;2024-02-26T12:18:24;26.05;;;14.82;;
46348;SDS011;32057;47.830;19.046;2024-02-26T12:20:59;23.38;;;14.77;;
46348;SDS011;32057;47.830;19.046;2024-02-26T12:23:28;19.52;;;13.38;;
46348;SDS011;32057;47.830;19.046;2024-02-26T12:25:58;20.65;;;14.95;;
46348;SDS011;32057;47.830;19.046;2024-02-26T12:28:27;32.10;;;14.45;;
46348;SDS011;32057;47.830;19.046;2024-02-26T12:30:53;18.55;;;12.05;;
46348;SDS011;32057;47.830;19.046;2024-02-26T12:33:19;20.77;;;13.90;;
46348;SDS011;32057;47.830;19.046;2024-02-26T12:35:45;18.52;;;12.40;;
46348;SDS011;32057;47.830;19.046;2024-02-26T12:38:14;21.73;;;13.65;;
46348;SDS011;32057;47.830;19.046;2024-02-26T12:40:40;16.85;;;12.82;;
46348;SDS011;32057;47.830;19.046;2024-02-26T12:43:05;21.05;;;14.00;;
46348;SDS011;32057;47.830;19.046;2024-02-26T12:45:31;20.92;;;13.02;;
46348;SDS011;32057;47.830;19.046;2024-02-26T12:47:57;22.15;;;14.07;;
46348;SDS011;32057;47.830;19.046;2024-02-26T12:50:24;30.05;;;16.00;;
46348;SDS011;32057;47.830;19.046;2024-02-26T12:52:49;20.95;;;14.82;;
46348;SDS011;32057;47.830;19.046;2024-02-26T12:55:17;21.10;;;13.32;;
46348;SDS011;32057;47.830;19.046;2024-02-26T12:57:45;20.35;;;14.68;;
46348;SDS011;32057;47.830;19.046;2024-02-26T13:00:12;19.15;;;12.65;;
46348;SDS011;32057;47.830;19.046;2024-02-26T13:02:41;18.23;;;12.82;;
46348;SDS011;32057;47.830;19.046;2024-02-26T13:05:10;19.98;;;12.88;;
46348;SDS011;32057;47.830;19.046;2024-02-26T13:07:45;22.30;;;14.85;;
46348;SDS011;32057;47.830;19.046;2024-02-26T13:10:15;18.60;;;12.38;;
46348;SDS011;32057;47.830;19.046;2024-02-26T13:12:45;18.70;;;12.73;;
46348;SDS011;32057;47.830;19.046;2024-02-26T13:15:16;20.25;;;14.02;;
46348;SDS011;32057;47.830;19.046;2024-02-26T13:17:45;21.17;;;14.23;;
46348;SDS011;32057;47.830;19.046;2024-02-26T13:20:11;16.33;;;11.15;;
46348;SDS011;32057;47.830;19.046;2024-02-26T13:22:38;22.08;;;13.82;;
46348;SDS011;32057;47.830;19.046;2024-02-26T13:25:04;21.38;;;12.63;;
46348;SDS011;32057;47.830;19.046;2024-02-26T13:27:29;20.48;;;13.13;;
46348;SDS011;32057;47.830;19.046;2024-02-26T13:32:34;22.42;;;13.75;;
46348;SDS011;32057;47.830;19.046;2024-02-26T13:35:04;16.45;;;11.98;;
46348;SDS011;32057;47.830;19.046;2024-02-26T13:37:31;22.70;;;12.05;;
46348;SDS011;32057;47.830;19.046;2024-02-26T13:39:56;17.88;;;12.02;;
46348;SDS011;32057;47.830;19.046;2024-02-26T13:42:21;14.90;;;11.48;;
46348;SDS011;32057;47.830;19.046;2024-02-26T13:44:47;17.33;;;11.50;;
46348;SDS011;32057;47.830;19.046;2024-02-26T13:47:12;18.88;;;11.50;;
46348;SDS011;32057;47.830;19.046;2024-02-26T13:49:38;15.20;;;11.27;;
46348;SDS011;32057;47.830;19.046;2024-02-26T13:52:03;23.45;;;10.90;;
46348;SDS011;32057;47.830;19.046;2024-02-26T13:54:29;17.48;;;11.23;;
46348;SDS011;32057;47.830;19.046;2024-02-26T13:56:54;20.15;;;12.02;;
46348;SDS011;32057;47.830;19.046;2024-02-26T13:59:19;16.75;;;10.43;;
46348;SDS011;32057;47.830;19.046;2024-02-26T14:01:45;19.58;;;11.77;;
46348;SDS011;32057;47.830;19.046;2024-02-26T14:04:10;14.20;;;10.73;;
46348;SDS011;32057;47.830;19.046;2024-02-26T14:06:35;22.63;;;10.73;;
46348;SDS011;32057;47.830;19.046;2024-02-26T14:09:01;11.68;;;9.63;;
46348;SDS011;32057;47.830;19.046;2024-02-26T14:11:26;17.80;;;11.23;;
46348;SDS011;32057;47.830;19.046;2024-02-26T14:13:54;15.48;;;10.95;;
46348;SDS011;32057;47.830;19.046;2024-02-26T14:16:19;15.02;;;10.05;;
46348;SDS011;32057;47.830;19.046;2024-02-26T14:18:45;16.77;;;10.90;;